createdAt,value
2018-04-10T00:00:00.264Z,60.31
2018-04-10T00:02:30.248Z,60.51
2018-04-10T00:04:59.667Z,60.68
2018-04-10T00:07:28.917Z,60.89
2018-04-10T00:09:58.170Z,60.81
2018-04-10T00:12:28.192Z,60.81
2018-04-10T00:14:57.413Z,60.78
2018-04-10T00:17:26.660Z,61.10
2018-04-10T00:19:55.905Z,61.40
2018-04-10T00:22:25.901Z,61.72
2018-04-10T00:24:55.310Z,61.93
2018-04-10T00:27:24.557Z,61.96
2018-04-10T00:29:53.836Z,61.97
2018-04-10T00:32:23.051Z,62.31
2018-04-10T00:34:52.268Z,62.18
2018-04-10T00:37:21.576Z,62.20
2018-04-10T00:39:50.816Z,62.52
2018-04-10T00:42:20.033Z,62.61
2018-04-10T00:44:49.236Z,62.58
2018-04-10T00:47:18.428Z,62.47
2018-04-10T00:49:47.645Z,62.46
2018-04-10T00:52:16.860Z,62.56
2018-04-10T00:54:46.076Z,62.52
2018-04-10T00:57:16.080Z,62.33
2018-04-10T00:59:45.377Z,62.34
2018-04-10T01:02:14.577Z,62.53
2018-04-10T01:04:43.778Z,62.64
2018-04-10T01:07:13.040Z,62.34
2018-04-10T01:09:42.247Z,62.51
2018-04-10T01:12:11.463Z,62.79
2018-04-10T01:14:40.717Z,63.00
2018-04-10T01:17:09.941Z,63.42
2018-04-10T01:19:39.146Z,64.20
2018-04-10T01:22:08.364Z,64.56
2018-04-10T01:24:37.611Z,64.61
2018-04-10T01:27:06.838Z,65.05
2018-04-10T01:29:36.016Z,65.81
2018-04-10T01:32:05.249Z,65.42
2018-04-10T01:34:34.504Z,65.51
2018-04-10T01:37:04.180Z,65.03
2018-04-10T01:39:34.181Z,64.92
2018-04-10T01:42:03.397Z,65.09
2018-04-10T01:44:33.400Z,64.84
2018-04-10T01:47:03.425Z,64.87
2018-04-10T01:49:33.404Z,64.93
2018-04-10T01:52:02.626Z,64.88
2018-04-10T01:54:31.901Z,65.00
2018-04-10T01:57:01.248Z,65.19
2018-04-10T01:59:31.228Z,64.58
2018-04-10T02:02:00.443Z,64.72
2018-04-10T02:04:30.428Z,64.79
2018-04-10T02:06:59.686Z,64.66
2018-04-10T02:09:28.912Z,64.62
2018-04-10T02:11:58.174Z,64.84
2018-04-10T02:14:28.184Z,64.91
2018-04-10T02:16:58.219Z,64.83
2018-04-10T02:19:27.460Z,64.87
2018-04-10T02:21:56.715Z,65.14
2018-04-10T02:24:25.906Z,65.21
2018-04-10T02:26:55.199Z,65.99
2018-04-10T02:29:25.226Z,66.03
2018-04-10T02:31:54.450Z,66.08
2018-04-10T02:34:24.564Z,66.27
2018-04-10T02:36:53.824Z,66.13
2018-04-10T02:39:23.836Z,66.10
2018-04-10T02:41:53.835Z,66.46
2018-04-10T02:44:23.080Z,66.88
2018-04-10T02:46:52.325Z,67.17
2018-04-10T02:49:21.580Z,67.45
2018-04-10T02:51:50.865Z,67.64
2018-04-10T02:54:20.129Z,67.96
2018-04-10T02:56:49.454Z,67.99
2018-04-10T02:59:19.550Z,68.43
2018-04-10T03:01:49.606Z,68.67
2018-04-10T03:04:18.875Z,68.48
2018-04-10T03:06:48.893Z,68.29
2018-04-10T03:09:18.925Z,68.31
2018-04-10T03:11:49.005Z,68.72
2018-04-10T03:14:18.217Z,69.13
2018-04-10T03:16:48.263Z,69.33
2018-04-10T03:19:18.383Z,69.27
2018-04-10T03:21:47.612Z,68.94
2018-04-10T03:24:16.888Z,68.75
2018-04-10T03:26:46.120Z,68.65
2018-04-10T03:29:15.352Z,68.63
2018-04-10T03:31:45.764Z,69.02
2018-04-10T03:34:15.005Z,68.86
2018-04-10T03:36:45.023Z,69.10
2018-04-10T03:39:14.216Z,69.45
2018-04-10T03:41:43.441Z,69.66
2018-04-10T03:44:13.405Z,69.60
2018-04-10T03:46:42.628Z,70.25
2018-04-10T03:49:11.866Z,70.80
2018-04-10T03:51:41.087Z,70.93
2018-04-10T03:54:10.322Z,70.91
2018-04-10T03:56:39.520Z,70.97
2018-04-10T03:59:08.765Z,70.89
2018-04-10T04:01:38.917Z,71.40
2018-04-10T04:04:08.105Z,71.52
2018-04-10T04:06:38.103Z,71.67
2018-04-10T04:09:07.369Z,71.93
2018-04-10T04:11:36.620Z,72.13
2018-04-10T04:14:05.904Z,72.40
2018-04-10T04:16:53.049Z,72.64
2018-04-10T04:19:39.949Z,72.84
2018-04-10T04:25:09.048Z,73.21
2018-04-10T04:27:38.270Z,73.06
2018-04-10T04:30:08.280Z,73.27
2018-04-10T04:32:37.527Z,73.43
2018-04-10T04:35:06.760Z,73.59
2018-04-10T04:37:35.977Z,73.44
2018-04-10T04:40:06.009Z,73.60
2018-04-10T04:42:35.248Z,73.98
2018-04-10T04:45:04.449Z,73.92
2018-04-10T04:47:33.678Z,73.82
2018-04-10T04:50:03.656Z,73.69
2018-04-10T04:52:32.909Z,73.78
2018-04-10T04:55:02.131Z,73.93
2018-04-10T04:57:31.361Z,73.97
2018-04-10T05:00:00.583Z,73.93
2018-04-10T05:02:30.647Z,74.00
2018-04-10T05:04:59.997Z,73.84
2018-04-10T05:07:30.055Z,73.63
2018-04-10T05:09:59.293Z,73.41
2018-04-10T05:12:28.529Z,73.44
2018-04-10T05:14:57.758Z,73.61
2018-04-10T05:17:26.996Z,73.71
2018-04-10T05:19:56.200Z,73.74
2018-04-10T05:22:25.433Z,73.88
2018-04-10T05:24:55.015Z,73.65
2018-04-10T05:27:24.261Z,73.63
2018-04-10T05:29:53.616Z,73.74
2018-04-10T05:32:22.829Z,73.87
2018-04-10T05:34:52.049Z,73.73
2018-04-10T05:37:21.271Z,73.67
2018-04-10T05:39:50.508Z,73.56
2018-04-10T05:42:19.810Z,73.54
2018-04-10T05:44:48.993Z,73.42
2018-04-10T05:47:18.230Z,73.23
2018-04-10T05:49:47.473Z,73.15
2018-04-10T05:52:16.690Z,73.09
2018-04-10T05:54:46.012Z,72.84
2018-04-10T05:57:15.300Z,72.54
2018-04-10T05:59:45.298Z,72.62
2018-04-10T06:02:14.509Z,72.99
2018-04-10T06:04:44.495Z,72.61
2018-04-10T06:07:14.552Z,72.43
2018-04-10T06:09:44.541Z,72.14
2018-04-10T06:12:13.776Z,71.74
2018-04-10T06:14:43.785Z,72.11
2018-04-10T06:17:13.041Z,71.81
2018-04-10T06:19:42.309Z,71.53
2018-04-10T06:22:11.520Z,70.90
2018-04-10T06:24:40.800Z,70.81
2018-04-10T06:27:10.044Z,70.45
2018-04-10T06:29:39.270Z,70.18
2018-04-10T06:32:09.282Z,70.26
2018-04-10T06:34:39.260Z,69.87
2018-04-10T06:37:08.502Z,70.02
2018-04-10T06:39:38.503Z,69.86
2018-04-10T06:42:07.864Z,69.48
2018-04-10T06:44:37.106Z,69.33
2018-04-10T06:47:06.301Z,69.56
2018-04-10T06:49:36.377Z,69.32
2018-04-10T06:52:05.714Z,68.29
2018-04-10T06:54:34.926Z,68.30
2018-04-10T06:57:05.102Z,67.96
2018-04-10T06:59:34.334Z,67.54
2018-04-10T07:02:03.568Z,67.13
2018-04-10T07:04:32.824Z,66.28
2018-04-10T07:07:02.078Z,65.76
2018-04-10T07:09:31.269Z,65.35
2018-04-10T07:12:00.517Z,64.05
2018-04-10T07:14:29.736Z,62.88
2018-04-10T07:16:59.037Z,63.30
2018-04-10T07:19:29.021Z,62.61
2018-04-10T07:21:58.257Z,61.95
2018-04-10T07:24:27.477Z,62.36
2018-04-10T07:26:56.696Z,61.70
2018-04-10T07:29:25.945Z,61.54
2018-04-10T07:31:55.187Z,60.18
2018-04-10T07:34:24.463Z,59.73
2018-04-10T07:36:53.678Z,59.71
2018-04-10T07:39:22.913Z,59.34
2018-04-10T07:41:52.172Z,59.46
2018-04-10T07:44:21.389Z,58.50
2018-04-10T07:46:50.604Z,58.31
2018-04-10T07:49:20.606Z,57.67
2018-04-10T07:51:49.868Z,58.21
2018-04-10T07:54:19.104Z,57.47
2018-04-10T07:56:48.304Z,55.92
2018-04-10T07:59:17.561Z,56.45
2018-04-10T08:01:46.768Z,56.66
2018-04-10T08:04:16.095Z,55.79
2018-04-10T08:06:45.269Z,55.02
2018-04-10T08:09:14.498Z,55.41
2018-04-10T08:11:43.704Z,53.14
2018-04-10T08:14:13.569Z,52.59
2018-04-10T08:16:42.778Z,53.46
2018-04-10T08:19:12.176Z,52.66
2018-04-10T08:21:41.393Z,52.21
2018-04-10T08:24:10.646Z,51.46
2018-04-10T08:26:39.961Z,51.14
2018-04-10T08:29:09.198Z,50.02
2018-04-10T08:31:38.508Z,50.87
2018-04-10T08:34:07.801Z,50.04
2018-04-10T08:36:37.011Z,51.12
2018-04-10T08:39:06.965Z,50.93
2018-04-10T08:41:36.249Z,51.22
2018-04-10T08:44:05.842Z,50.15
2018-04-10T08:46:35.837Z,50.56
2018-04-10T08:49:05.059Z,50.62
2018-04-10T08:51:35.053Z,50.12
2018-04-10T08:54:04.258Z,50.34
2018-04-10T08:56:33.516Z,49.75
2018-04-10T08:59:02.691Z,49.74
2018-04-10T09:01:31.976Z,49.69
2018-04-10T09:04:01.150Z,48.44
2018-04-10T09:06:30.398Z,48.68
2018-04-10T09:08:59.641Z,47.29
2018-04-10T09:11:28.867Z,48.31
2018-04-10T09:13:58.917Z,47.05
2018-04-10T09:16:28.160Z,48.14
2018-04-10T09:18:57.399Z,47.35
2018-04-10T09:21:26.677Z,46.75
2018-04-10T09:23:55.963Z,46.26
2018-04-10T09:26:26.042Z,45.60
2018-04-10T09:28:55.281Z,45.96
2018-04-10T09:31:25.292Z,46.25
2018-04-10T09:33:55.280Z,46.95
2018-04-10T09:36:24.569Z,46.00
2018-04-10T09:38:53.810Z,46.55
2018-04-10T09:41:23.020Z,46.20
2018-04-10T09:43:53.003Z,46.60
2018-04-10T09:46:22.235Z,46.57
2018-04-10T09:48:51.478Z,45.34
2018-04-10T09:51:20.692Z,44.56
2018-04-10T09:53:50.140Z,42.88
2018-04-10T09:56:19.362Z,45.78
2018-04-10T09:58:48.623Z,43.00
2018-04-10T10:01:18.608Z,44.18
2018-04-10T10:03:47.900Z,45.69
2018-04-10T10:06:17.118Z,46.22
2018-04-10T10:08:47.121Z,46.00
2018-04-10T10:11:16.357Z,46.00
2018-04-10T10:13:45.632Z,45.66
2018-04-10T10:16:15.648Z,44.88
2018-04-10T10:18:44.859Z,46.77
2018-04-10T10:21:14.857Z,46.11
2018-04-10T10:23:44.850Z,45.62
2018-04-10T10:26:14.117Z,44.64
2018-04-10T10:28:43.344Z,44.29
2018-04-10T10:31:12.623Z,45.00
2018-04-10T10:33:42.589Z,43.29
2018-04-10T10:36:12.206Z,42.78
2018-04-10T10:38:41.572Z,40.79
2018-04-10T10:41:10.905Z,40.94
2018-04-10T10:43:40.885Z,42.16
2018-04-10T10:46:10.130Z,40.76
2018-04-10T10:48:40.107Z,42.46
2018-04-10T10:51:10.053Z,43.12
2018-04-10T10:53:40.068Z,41.15
2018-04-10T10:56:09.287Z,42.44
2018-04-10T10:58:39.242Z,43.18
2018-04-10T11:01:08.485Z,42.48
2018-04-10T11:03:38.522Z,42.33
2018-04-10T11:06:07.833Z,39.27
2018-04-10T11:08:37.009Z,38.69
2018-04-10T11:11:06.210Z,39.63
2018-04-10T11:13:36.192Z,40.40
2018-04-10T11:16:06.233Z,40.86
2018-04-10T11:18:35.466Z,40.69
2018-04-10T11:21:04.716Z,42.85
2018-04-10T11:23:34.702Z,42.67
2018-04-10T11:26:03.930Z,41.74
2018-04-10T11:28:33.124Z,42.33
2018-04-10T11:31:03.154Z,42.57
2018-04-10T11:33:33.133Z,42.96
2018-04-10T11:36:02.368Z,42.98
2018-04-10T11:38:32.360Z,44.19
2018-04-10T11:41:01.662Z,44.47
2018-04-10T11:43:30.873Z,44.73
2018-04-10T11:46:00.824Z,44.71
2018-04-10T11:48:30.077Z,44.09
2018-04-10T11:50:59.284Z,43.78
2018-04-10T11:53:29.283Z,44.77
2018-04-10T11:55:58.508Z,44.10
2018-04-10T11:58:27.817Z,44.23
2018-04-10T12:00:57.042Z,45.34
2018-04-10T12:03:26.340Z,44.23
2018-04-10T12:05:55.548Z,42.62
2018-04-10T12:08:24.797Z,44.31
2018-04-10T12:10:54.756Z,43.29
2018-04-10T12:13:23.998Z,44.55
2018-04-10T12:15:53.225Z,43.72
2018-04-10T12:18:22.520Z,45.25
2018-04-10T12:20:51.761Z,45.08
2018-04-10T12:23:20.988Z,46.18
2018-04-10T12:25:50.281Z,45.91
2018-04-10T12:28:19.495Z,45.35
2018-04-10T12:30:49.473Z,45.43
2018-04-10T12:33:19.521Z,45.30
2018-04-10T12:35:49.534Z,45.16
2018-04-10T12:38:18.733Z,44.42
2018-04-10T12:40:49.000Z,45.14
2018-04-10T12:43:18.143Z,44.28
2018-04-10T12:45:47.382Z,45.30
2018-04-10T12:48:16.611Z,45.32
2018-04-10T12:50:45.872Z,45.24
2018-04-10T12:53:15.804Z,46.00
2018-04-10T12:55:45.034Z,46.00
2018-04-10T12:58:14.260Z,46.92
2018-04-10T13:00:44.288Z,46.02
2018-04-10T13:03:13.564Z,46.04
2018-04-10T13:05:42.859Z,46.36
2018-04-10T13:08:12.075Z,46.83
2018-04-10T13:10:42.186Z,47.38
2018-04-10T13:13:12.273Z,46.48
2018-04-10T13:15:41.541Z,46.98
2018-04-10T13:18:10.813Z,46.56
2018-04-10T13:20:40.853Z,45.97
2018-04-10T13:23:10.160Z,46.60
2018-04-10T13:25:42.392Z,46.09
2018-04-10T13:28:12.543Z,45.69
2018-04-10T13:30:41.749Z,45.78
2018-04-10T13:33:10.986Z,45.29
2018-04-10T13:35:40.199Z,44.67
2018-04-10T13:38:10.391Z,45.77
2018-04-10T13:40:39.562Z,45.10
2018-04-10T13:43:08.802Z,45.35
2018-04-10T13:45:38.054Z,45.74
2018-04-10T13:48:07.282Z,44.35
2018-04-10T13:50:36.501Z,45.32
2018-04-10T13:53:05.747Z,45.59
2018-04-10T13:55:34.988Z,46.37
2018-04-10T13:58:04.210Z,46.50
2018-04-10T14:00:34.277Z,47.24
2018-04-10T14:03:03.492Z,47.82
2018-04-10T14:05:32.724Z,47.44
2018-04-10T14:08:02.693Z,47.59
2018-04-10T14:10:31.937Z,47.36
2018-04-10T14:13:01.927Z,47.19
2018-04-10T14:15:31.156Z,47.84
2018-04-10T14:18:00.384Z,47.68
2018-04-10T14:20:29.653Z,47.45
2018-04-10T14:22:59.641Z,47.27
2018-04-10T14:25:28.883Z,46.71
2018-04-10T14:27:58.131Z,46.86
2018-04-10T14:30:27.385Z,46.13
2018-04-10T14:32:56.594Z,45.41
2018-04-10T14:35:25.837Z,44.51
2018-04-10T14:37:55.821Z,45.49
2018-04-10T14:40:25.097Z,45.72
2018-04-10T14:42:54.340Z,45.55
2018-04-10T14:45:23.579Z,45.34
2018-04-10T14:47:52.812Z,46.40
2018-04-10T14:50:22.038Z,46.00
2018-04-10T14:52:52.065Z,45.97
2018-04-10T14:55:21.307Z,45.90
2018-04-10T14:57:50.574Z,45.20
2018-04-10T15:00:19.794Z,45.24
2018-04-10T15:02:49.034Z,44.29
2018-04-10T15:05:18.309Z,44.67
2018-04-10T15:07:47.581Z,45.13
2018-04-10T15:10:16.809Z,45.03
2018-04-10T15:12:46.021Z,45.08
2018-04-10T15:15:15.237Z,45.40
2018-04-10T15:17:44.485Z,45.57
2018-04-10T15:20:13.680Z,46.25
2018-04-10T15:22:42.910Z,45.73
2018-04-10T15:25:12.122Z,46.36
2018-04-10T15:27:41.355Z,46.73
2018-04-10T15:30:11.374Z,46.54
2018-04-10T15:32:40.583Z,46.46
2018-04-10T15:35:09.817Z,46.35
2018-04-10T15:37:39.074Z,46.88
2018-04-10T15:40:08.317Z,46.94
2018-04-10T15:42:37.521Z,47.56
2018-04-10T15:45:06.761Z,48.77
2018-04-10T15:47:35.969Z,48.78
2018-04-10T15:50:05.227Z,48.33
2018-04-10T15:52:35.261Z,48.53
2018-04-10T15:55:05.261Z,48.16
2018-04-10T15:57:35.296Z,49.05
2018-04-10T16:00:05.325Z,49.00
2018-04-10T16:02:34.773Z,49.27
2018-04-10T16:05:04.006Z,49.03
2018-04-10T16:07:33.969Z,48.29
2018-04-10T16:10:03.205Z,48.88
2018-04-10T16:12:32.511Z,48.85
2018-04-10T16:15:01.732Z,49.35
2018-04-10T16:17:31.008Z,49.04
2018-04-10T16:20:00.265Z,48.81
2018-04-10T16:22:29.482Z,48.96
2018-04-10T16:24:58.767Z,49.27
2018-04-10T16:27:27.988Z,49.10
2018-04-10T16:29:58.048Z,48.12
2018-04-10T16:32:28.064Z,47.96
2018-04-10T16:34:58.135Z,48.40
2018-04-10T16:37:28.848Z,48.59
2018-04-10T16:39:58.193Z,48.57
2018-04-10T16:42:27.420Z,48.36
2018-04-10T16:44:56.630Z,48.54
2018-04-10T16:47:25.865Z,48.41
2018-04-10T16:49:55.073Z,48.52
2018-04-10T16:52:24.301Z,48.50
2018-04-10T16:54:53.529Z,48.64
2018-04-10T16:57:22.761Z,48.81
2018-04-10T16:59:51.969Z,49.19
2018-04-10T17:02:21.980Z,49.40
2018-04-10T17:04:51.183Z,49.93
2018-04-10T17:07:21.224Z,50.37
2018-04-10T17:09:50.459Z,50.78
2018-04-10T17:12:20.098Z,51.27
2018-04-10T17:14:49.313Z,51.52
2018-04-10T17:17:19.328Z,51.91
2018-04-10T17:19:49.297Z,52.21
2018-04-10T17:22:18.576Z,52.59
2018-04-10T17:24:47.886Z,52.62
2018-04-10T17:27:17.082Z,52.97
2018-04-10T17:29:46.543Z,53.19
2018-04-10T17:32:16.512Z,53.38
2018-04-10T17:34:45.744Z,53.30
2018-04-10T17:37:14.952Z,53.60
2018-04-10T17:39:45.037Z,53.67
2018-04-10T17:42:14.245Z,53.89
2018-04-10T17:44:43.483Z,53.83
2018-04-10T17:47:12.717Z,53.70
2018-04-10T17:49:41.961Z,54.12
2018-04-10T17:52:11.173Z,53.71
2018-04-10T17:54:40.412Z,53.85
2018-04-10T17:57:09.665Z,53.95
2018-04-10T17:59:39.673Z,54.29
2018-04-10T18:02:09.741Z,54.32
2018-04-10T18:04:39.097Z,54.86
2018-04-10T18:07:09.084Z,54.90
2018-04-10T18:09:38.376Z,54.97
2018-04-10T18:12:08.530Z,55.19
2018-04-10T18:14:37.763Z,55.25
2018-04-10T18:17:07.045Z,55.42
2018-04-10T18:19:36.290Z,55.53
2018-04-10T18:22:05.511Z,55.75
2018-04-10T18:24:34.790Z,56.33
2018-04-10T18:27:04.070Z,56.45
2018-04-10T18:29:33.294Z,56.41
2018-04-10T18:32:02.560Z,56.53
2018-04-10T18:34:31.802Z,56.59
2018-04-10T18:37:01.062Z,56.70
2018-04-10T18:39:30.272Z,56.76
2018-04-10T18:41:59.572Z,56.80
2018-04-10T18:44:30.326Z,56.71
2018-04-10T18:46:59.567Z,56.80
2018-04-10T18:49:29.044Z,56.85
2018-04-10T18:51:59.073Z,57.12
2018-04-10T18:54:29.421Z,57.15
2018-04-10T18:56:58.890Z,57.29
2018-04-10T18:59:28.904Z,57.17
2018-04-10T19:01:59.125Z,57.33
2018-04-10T19:04:29.120Z,57.51
2018-04-10T19:06:58.429Z,57.53
2018-04-10T19:09:27.682Z,57.54
2018-04-10T19:11:56.926Z,57.76
2018-04-10T19:14:26.198Z,57.89
2018-04-10T19:16:55.444Z,58.17
2018-04-10T19:19:25.440Z,58.36
2018-04-10T19:21:55.419Z,58.39
2018-04-10T19:24:24.669Z,59.38
2018-04-10T19:26:54.684Z,57.37
2018-04-10T19:29:24.710Z,55.34
2018-04-10T19:31:54.695Z,55.21
2018-04-10T19:34:23.948Z,54.84
2018-04-10T19:36:53.185Z,54.20
2018-04-10T19:39:22.712Z,54.04
2018-04-10T19:41:52.718Z,53.43
2018-04-10T19:44:21.933Z,52.46
2018-04-10T19:46:51.925Z,52.58
2018-04-10T19:49:21.177Z,52.67
2018-04-10T19:51:50.410Z,53.50
2018-04-10T19:54:19.642Z,54.54
2018-04-10T19:56:49.649Z,54.78
2018-04-10T19:59:19.238Z,55.40
2018-04-10T20:01:48.506Z,55.83
2018-04-10T20:04:17.833Z,56.58
2018-04-10T20:06:48.028Z,57.20
2018-04-10T20:09:17.343Z,57.72
2018-04-10T20:11:46.635Z,58.10
2018-04-10T20:14:15.877Z,58.98
2018-04-10T20:16:45.972Z,59.57
2018-04-10T20:19:15.241Z,60.27
2018-04-10T20:21:44.683Z,60.62
2018-04-10T20:24:13.953Z,61.94
2018-04-10T20:26:43.232Z,62.67
2018-04-10T20:29:12.446Z,63.61
2018-04-10T20:31:41.729Z,64.01
2018-04-10T20:34:10.941Z,64.67
2018-04-10T20:36:40.190Z,65.09
2018-04-10T20:39:10.218Z,65.72
2018-04-10T20:41:40.216Z,66.16
2018-04-10T20:44:10.290Z,66.40
2018-04-10T20:46:39.486Z,67.51
2018-04-10T20:49:08.761Z,67.20
2018-04-10T20:51:37.970Z,67.00
2018-04-10T20:54:07.200Z,67.53
2018-04-10T20:56:36.449Z,67.22
2018-04-10T20:59:05.693Z,67.40
2018-04-10T21:01:35.024Z,67.58
2018-04-10T21:04:05.010Z,67.73
2018-04-10T21:06:34.286Z,67.64
2018-04-10T21:09:03.511Z,67.93
2018-04-10T21:11:32.736Z,67.99
2018-04-10T21:14:02.733Z,68.07
2018-04-10T21:16:31.949Z,67.91
2018-04-10T21:19:01.207Z,67.91
2018-04-10T21:21:30.424Z,68.05
2018-04-10T21:23:59.705Z,68.08
2018-04-10T21:26:28.914Z,68.29
2018-04-10T21:28:58.157Z,68.63
2018-04-10T21:31:28.162Z,69.02
2018-04-10T21:33:58.133Z,69.44
2018-04-10T21:36:27.353Z,69.67
2018-04-10T21:38:57.384Z,69.71
2018-04-10T21:41:26.626Z,69.93
2018-04-10T21:43:55.884Z,69.85
2018-04-10T21:46:25.102Z,70.33
2018-04-10T21:48:54.433Z,71.56
2018-04-10T21:51:23.685Z,71.70
2018-04-10T21:53:53.678Z,71.66
2018-04-10T21:56:22.916Z,71.43
2018-04-10T21:58:52.172Z,71.58
2018-04-10T22:01:21.411Z,71.96
2018-04-10T22:03:50.642Z,72.46
2018-04-10T22:06:19.934Z,72.93
2018-04-10T22:08:49.223Z,73.22
2018-04-10T22:11:18.392Z,73.62
2018-04-10T22:13:48.421Z,73.92
2018-04-10T22:16:17.648Z,74.64
2018-04-10T22:18:46.876Z,74.81
2018-04-10T22:21:16.100Z,74.87
2018-04-10T22:23:46.105Z,74.94
2018-04-10T22:26:16.090Z,75.22
2018-04-10T22:28:45.315Z,75.64
2018-04-10T22:31:15.338Z,76.15
2018-04-10T22:33:45.314Z,76.37
2018-04-10T22:36:14.551Z,76.51
2018-04-10T22:38:43.783Z,76.52
2018-04-10T22:41:13.418Z,76.43
2018-04-10T22:43:42.641Z,76.87
2018-04-10T22:46:11.850Z,77.13
2018-04-10T22:48:41.088Z,77.72
2018-04-10T22:51:10.338Z,77.70
2018-04-10T22:53:39.557Z,77.72
2018-04-10T22:56:08.978Z,77.76
2018-04-10T22:58:38.203Z,78.04
2018-04-10T23:01:08.185Z,78.31
2018-04-10T23:03:37.394Z,78.55
2018-04-10T23:06:06.616Z,78.36
2018-04-10T23:08:35.878Z,78.21
2018-04-10T23:11:06.168Z,78.27
2018-04-10T23:13:36.138Z,78.46
2018-04-10T23:16:05.369Z,78.51
2018-04-10T23:18:34.630Z,78.33
2018-04-10T23:21:03.878Z,78.63
2018-04-10T23:23:33.229Z,78.99
2018-04-10T23:26:03.255Z,79.18
2018-04-10T23:28:32.442Z,79.27
2018-04-10T23:31:01.673Z,79.16
2018-04-10T23:33:30.923Z,79.28
2018-04-10T23:36:00.213Z,79.42
2018-04-10T23:38:29.454Z,79.61
2018-04-10T23:40:58.667Z,79.88
2018-04-10T23:43:27.905Z,79.86
2018-04-10T23:45:57.871Z,79.65
2018-04-10T23:48:27.105Z,79.94
2018-04-10T23:50:56.319Z,79.84
2018-04-10T23:53:26.305Z,79.97
2018-04-10T23:55:55.533Z,79.82
2018-04-10T23:58:25.531Z,79.53
